sensor_id;sensor_type;location;lat;lon;timestamp;P1;durP1;ratioP1;P2;durP2;ratioP2
12635;SDS011;6383;50.830;7.210;2023-03-29T00:00:32;4.97;;;2.40;;
12635;SDS011;6383;50.830;7.210;2023-03-29T00:03:02;7.90;;;2.28;;
12635;SDS011;6383;50.830;7.210;2023-03-29T00:05:31;3.35;;;2.40;;
12635;SDS011;6383;50.830;7.210;2023-03-29T00:08:00;3.65;;;2.45;;
12635;SDS011;6383;50.830;7.210;2023-03-29T00:10:31;4.75;;;2.85;;
12635;SDS011;6383;50.830;7.210;2023-03-29T00:13:01;4.95;;;2.75;;
12635;SDS011;6383;50.830;7.210;2023-03-29T00:15:28;4.75;;;3.00;;
12635;SDS011;6383;50.830;7.210;2023-03-29T00:17:56;8.00;;;2.58;;
12635;SDS011;6383;50.830;7.210;2023-03-29T00:20:26;3.55;;;2.30;;
12635;SDS011;6383;50.830;7.210;2023-03-29T00:22:55;7.70;;;2.90;;
12635;SDS011;6383;50.830;7.210;2023-03-29T00:25:24;8.45;;;3.20;;
12635;SDS011;6383;50.830;7.210;2023-03-29T00:27:59;4.50;;;2.67;;
12635;SDS011;6383;50.830;7.210;2023-03-29T00:30:28;4.10;;;3.10;;
12635;SDS011;6383;50.830;7.210;2023-03-29T00:32:56;3.40;;;2.60;;
12635;SDS011;6383;50.830;7.210;2023-03-29T00:35:31;5.90;;;3.08;;
12635;SDS011;6383;50.830;7.210;2023-03-29T00:38:00;3.65;;;3.20;;
12635;SDS011;6383;50.830;7.210;2023-03-29T00:40:28;4.13;;;3.42;;
12635;SDS011;6383;50.830;7.210;2023-03-29T00:42:57;5.63;;;2.92;;
12635;SDS011;6383;50.830;7.210;2023-03-29T00:45:31;10.70;;;3.50;;
12635;SDS011;6383;50.830;7.210;2023-03-29T00:48:03;4.60;;;2.53;;
12635;SDS011;6383;50.830;7.210;2023-03-29T00:50:36;4.75;;;2.70;;
12635;SDS011;6383;50.830;7.210;2023-03-29T00:53:08;8.52;;;3.33;;
12635;SDS011;6383;50.830;7.210;2023-03-29T00:55:39;7.95;;;3.22;;
12635;SDS011;6383;50.830;7.210;2023-03-29T00:58:11;4.22;;;3.20;;
12635;SDS011;6383;50.830;7.210;2023-03-29T01:00:46;5.28;;;3.50;;
12635;SDS011;6383;50.830;7.210;2023-03-29T01:03:18;4.05;;;2.70;;
12635;SDS011;6383;50.830;7.210;2023-03-29T01:05:54;5.20;;;3.00;;
12635;SDS011;6383;50.830;7.210;2023-03-29T01:08:27;4.07;;;2.83;;
12635;SDS011;6383;50.830;7.210;2023-03-29T01:10:59;3.20;;;2.90;;
12635;SDS011;6383;50.830;7.210;2023-03-29T01:13:32;5.15;;;2.97;;
12635;SDS011;6383;50.830;7.210;2023-03-29T01:16:05;4.07;;;3.03;;
12635;SDS011;6383;50.830;7.210;2023-03-29T01:18:34;4.57;;;2.78;;
12635;SDS011;6383;50.830;7.210;2023-03-29T01:21:08;2.90;;;2.53;;
12635;SDS011;6383;50.830;7.210;2023-03-29T01:23:46;3.08;;;2.22;;
12635;SDS011;6383;50.830;7.210;2023-03-29T01:26:25;3.67;;;2.55;;
12635;SDS011;6383;50.830;7.210;2023-03-29T01:29:02;3.75;;;2.67;;
12635;SDS011;6383;50.830;7.210;2023-03-29T01:31:35;3.60;;;2.20;;
12635;SDS011;6383;50.830;7.210;2023-03-29T01:34:08;5.32;;;2.53;;
12635;SDS011;6383;50.830;7.210;2023-03-29T01:36:42;4.07;;;2.80;;
12635;SDS011;6383;50.830;7.210;2023-03-29T01:39:16;4.97;;;2.78;;
12635;SDS011;6383;50.830;7.210;2023-03-29T01:41:47;7.10;;;2.75;;
12635;SDS011;6383;50.830;7.210;2023-03-29T01:44:29;4.35;;;2.63;;
12635;SDS011;6383;50.830;7.210;2023-03-29T01:47:02;5.72;;;2.60;;
12635;SDS011;6383;50.830;7.210;2023-03-29T01:49:39;3.45;;;1.85;;
12635;SDS011;6383;50.830;7.210;2023-03-29T01:52:12;3.83;;;2.10;;
12635;SDS011;6383;50.830;7.210;2023-03-29T01:54:45;11.00;;;2.65;;
12635;SDS011;6383;50.830;7.210;2023-03-29T01:57:18;2.97;;;2.22;;
12635;SDS011;6383;50.830;7.210;2023-03-29T01:59:49;3.10;;;2.05;;
12635;SDS011;6383;50.830;7.210;2023-03-29T02:02:20;2.42;;;1.88;;
12635;SDS011;6383;50.830;7.210;2023-03-29T02:04:51;4.97;;;2.35;;
12635;SDS011;6383;50.830;7.210;2023-03-29T02:07:21;3.20;;;1.90;;
12635;SDS011;6383;50.830;7.210;2023-03-29T02:09:53;3.75;;;1.95;;
12635;SDS011;6383;50.830;7.210;2023-03-29T02:12:24;2.22;;;2.00;;
12635;SDS011;6383;50.830;7.210;2023-03-29T02:14:54;3.97;;;1.90;;
12635;SDS011;6383;50.830;7.210;2023-03-29T02:17:24;4.38;;;2.10;;
12635;SDS011;6383;50.830;7.210;2023-03-29T02:19:53;3.72;;;2.45;;
12635;SDS011;6383;50.830;7.210;2023-03-29T02:22:25;3.85;;;1.80;;
12635;SDS011;6383;50.830;7.210;2023-03-29T02:24:55;7.53;;;2.35;;
12635;SDS011;6383;50.830;7.210;2023-03-29T02:27:26;4.78;;;2.85;;
12635;SDS011;6383;50.830;7.210;2023-03-29T02:29:56;3.35;;;1.90;;
12635;SDS011;6383;50.830;7.210;2023-03-29T02:32:25;2.92;;;1.92;;
12635;SDS011;6383;50.830;7.210;2023-03-29T02:34:59;3.53;;;1.98;;
12635;SDS011;6383;50.830;7.210;2023-03-29T02:37:31;3.47;;;1.77;;
12635;SDS011;6383;50.830;7.210;2023-03-29T02:40:07;5.38;;;2.10;;
12635;SDS011;6383;50.830;7.210;2023-03-29T02:42:38;3.33;;;2.13;;
12635;SDS011;6383;50.830;7.210;2023-03-29T02:45:09;3.08;;;2.00;;
12635;SDS011;6383;50.830;7.210;2023-03-29T02:47:40;4.47;;;1.80;;
12635;SDS011;6383;50.830;7.210;2023-03-29T02:50:12;3.20;;;2.28;;
12635;SDS011;6383;50.830;7.210;2023-03-29T02:52:42;3.67;;;2.03;;
12635;SDS011;6383;50.830;7.210;2023-03-29T02:55:17;2.35;;;2.15;;
12635;SDS011;6383;50.830;7.210;2023-03-29T02:57:46;3.53;;;2.15;;
12635;SDS011;6383;50.830;7.210;2023-03-29T03:00:17;8.98;;;2.00;;
12635;SDS011;6383;50.830;7.210;2023-03-29T03:02:49;3.43;;;2.20;;
12635;SDS011;6383;50.830;7.210;2023-03-29T03:05:18;3.60;;;2.03;;
12635;SDS011;6383;50.830;7.210;2023-03-29T03:07:47;3.95;;;2.10;;
12635;SDS011;6383;50.830;7.210;2023-03-29T03:10:16;4.63;;;2.00;;
12635;SDS011;6383;50.830;7.210;2023-03-29T03:12:45;4.10;;;2.22;;
12635;SDS011;6383;50.830;7.210;2023-03-29T03:15:14;4.72;;;2.50;;
12635;SDS011;6383;50.830;7.210;2023-03-29T03:17:44;3.25;;;2.03;;
12635;SDS011;6383;50.830;7.210;2023-03-29T03:20:15;2.53;;;1.92;;
12635;SDS011;6383;50.830;7.210;2023-03-29T03:22:44;2.80;;;2.15;;
12635;SDS011;6383;50.830;7.210;2023-03-29T03:25:15;2.78;;;2.25;;
12635;SDS011;6383;50.830;7.210;2023-03-29T03:27:47;3.33;;;1.80;;
12635;SDS011;6383;50.830;7.210;2023-03-29T03:30:16;3.55;;;2.00;;
12635;SDS011;6383;50.830;7.210;2023-03-29T03:32:45;3.17;;;1.70;;
12635;SDS011;6383;50.830;7.210;2023-03-29T03:35:15;4.43;;;1.95;;
12635;SDS011;6383;50.830;7.210;2023-03-29T03:37:45;3.20;;;2.13;;
12635;SDS011;6383;50.830;7.210;2023-03-29T03:40:14;2.20;;;2.00;;
12635;SDS011;6383;50.830;7.210;2023-03-29T03:42:43;4.90;;;2.40;;
12635;SDS011;6383;50.830;7.210;2023-03-29T03:45:13;5.22;;;2.08;;
12635;SDS011;6383;50.830;7.210;2023-03-29T03:47:41;2.67;;;2.00;;
12635;SDS011;6383;50.830;7.210;2023-03-29T03:50:11;7.28;;;2.42;;
12635;SDS011;6383;50.830;7.210;2023-03-29T03:52:41;4.47;;;2.28;;
12635;SDS011;6383;50.830;7.210;2023-03-29T03:55:10;3.00;;;1.88;;
12635;SDS011;6383;50.830;7.210;2023-03-29T03:57:39;4.80;;;2.42;;
12635;SDS011;6383;50.830;7.210;2023-03-29T04:00:07;4.05;;;2.00;;
12635;SDS011;6383;50.830;7.210;2023-03-29T04:02:45;2.78;;;2.38;;
12635;SDS011;6383;50.830;7.210;2023-03-29T04:05:16;2.45;;;1.80;;
12635;SDS011;6383;50.830;7.210;2023-03-29T04:07:46;2.60;;;1.92;;
12635;SDS011;6383;50.830;7.210;2023-03-29T04:10:15;4.45;;;1.90;;
12635;SDS011;6383;50.830;7.210;2023-03-29T04:12:42;4.75;;;2.28;;
12635;SDS011;6383;50.830;7.210;2023-03-29T04:15:11;5.93;;;2.28;;
12635;SDS011;6383;50.830;7.210;2023-03-29T04:17:40;5.40;;;2.10;;
12635;SDS011;6383;50.830;7.210;2023-03-29T04:20:09;1.85;;;1.70;;
12635;SDS011;6383;50.830;7.210;2023-03-29T04:22:39;7.07;;;2.47;;
12635;SDS011;6383;50.830;7.210;2023-03-29T04:25:07;4.55;;;1.92;;
12635;SDS011;6383;50.830;7.210;2023-03-29T04:27:36;3.03;;;1.92;;
12635;SDS011;6383;50.830;7.210;2023-03-29T04:30:05;1.70;;;1.60;;
12635;SDS011;6383;50.830;7.210;2023-03-29T04:32:35;2.40;;;1.88;;
12635;SDS011;6383;50.830;7.210;2023-03-29T04:35:04;9.35;;;1.90;;
12635;SDS011;6383;50.830;7.210;2023-03-29T04:37:34;2.53;;;2.00;;
12635;SDS011;6383;50.830;7.210;2023-03-29T04:40:07;3.60;;;2.10;;
12635;SDS011;6383;50.830;7.210;2023-03-29T04:42:40;1.88;;;1.65;;
12635;SDS011;6383;50.830;7.210;2023-03-29T04:45:10;6.28;;;2.00;;
12635;SDS011;6383;50.830;7.210;2023-03-29T04:47:40;3.25;;;1.95;;
12635;SDS011;6383;50.830;7.210;2023-03-29T04:50:09;3.05;;;1.90;;
12635;SDS011;6383;50.830;7.210;2023-03-29T04:52:37;6.00;;;1.80;;
12635;SDS011;6383;50.830;7.210;2023-03-29T04:55:07;4.88;;;1.90;;
12635;SDS011;6383;50.830;7.210;2023-03-29T04:57:35;3.45;;;2.47;;
12635;SDS011;6383;50.830;7.210;2023-03-29T05:00:04;5.75;;;2.08;;
12635;SDS011;6383;50.830;7.210;2023-03-29T05:02:41;3.00;;;2.30;;
12635;SDS011;6383;50.830;7.210;2023-03-29T05:05:11;6.25;;;1.98;;
12635;SDS011;6383;50.830;7.210;2023-03-29T05:07:40;4.35;;;1.90;;
12635;SDS011;6383;50.830;7.210;2023-03-29T05:10:09;4.13;;;1.73;;
12635;SDS011;6383;50.830;7.210;2023-03-29T05:12:37;2.45;;;2.17;;
12635;SDS011;6383;50.830;7.210;2023-03-29T05:15:06;3.47;;;1.88;;
12635;SDS011;6383;50.830;7.210;2023-03-29T05:17:35;2.63;;;1.88;;
12635;SDS011;6383;50.830;7.210;2023-03-29T05:20:04;3.35;;;1.92;;
12635;SDS011;6383;50.830;7.210;2023-03-29T05:22:35;2.42;;;2.15;;
12635;SDS011;6383;50.830;7.210;2023-03-29T05:25:05;2.80;;;2.03;;
12635;SDS011;6383;50.830;7.210;2023-03-29T05:27:37;3.42;;;1.90;;
12635;SDS011;6383;50.830;7.210;2023-03-29T05:30:06;2.13;;;1.50;;
12635;SDS011;6383;50.830;7.210;2023-03-29T05:32:35;2.53;;;1.88;;
12635;SDS011;6383;50.830;7.210;2023-03-29T05:35:04;2.97;;;2.22;;
12635;SDS011;6383;50.830;7.210;2023-03-29T05:37:33;5.10;;;2.03;;
12635;SDS011;6383;50.830;7.210;2023-03-29T05:40:02;2.00;;;1.77;;
12635;SDS011;6383;50.830;7.210;2023-03-29T05:42:35;3.80;;;2.00;;
12635;SDS011;6383;50.830;7.210;2023-03-29T05:45:03;3.95;;;2.13;;
12635;SDS011;6383;50.830;7.210;2023-03-29T05:47:33;4.70;;;1.95;;
12635;SDS011;6383;50.830;7.210;2023-03-29T05:50:02;7.30;;;2.42;;
12635;SDS011;6383;50.830;7.210;2023-03-29T05:52:30;2.22;;;1.80;;
12635;SDS011;6383;50.830;7.210;2023-03-29T05:54:58;3.17;;;1.60;;
12635;SDS011;6383;50.830;7.210;2023-03-29T05:57:27;7.10;;;2.30;;
12635;SDS011;6383;50.830;7.210;2023-03-29T05:59:57;3.60;;;2.03;;
12635;SDS011;6383;50.830;7.210;2023-03-29T06:02:24;2.28;;;1.88;;
12635;SDS011;6383;50.830;7.210;2023-03-29T06:04:54;4.70;;;2.50;;
12635;SDS011;6383;50.830;7.210;2023-03-29T06:07:22;5.38;;;2.22;;
12635;SDS011;6383;50.830;7.210;2023-03-29T06:09:50;3.75;;;2.63;;
12635;SDS011;6383;50.830;7.210;2023-03-29T06:12:18;5.70;;;2.45;;
12635;SDS011;6383;50.830;7.210;2023-03-29T06:14:47;4.20;;;2.20;;
12635;SDS011;6383;50.830;7.210;2023-03-29T06:17:18;1.88;;;1.70;;
12635;SDS011;6383;50.830;7.210;2023-03-29T06:19:46;3.72;;;2.40;;
12635;SDS011;6383;50.830;7.210;2023-03-29T06:22:15;2.80;;;2.03;;
12635;SDS011;6383;50.830;7.210;2023-03-29T06:24:44;3.38;;;2.20;;
12635;SDS011;6383;50.830;7.210;2023-03-29T06:27:14;2.58;;;2.13;;
12635;SDS011;6383;50.830;7.210;2023-03-29T06:29:43;2.95;;;2.08;;
12635;SDS011;6383;50.830;7.210;2023-03-29T06:32:11;5.95;;;2.30;;
12635;SDS011;6383;50.830;7.210;2023-03-29T06:34:42;5.93;;;2.03;;
12635;SDS011;6383;50.830;7.210;2023-03-29T06:37:11;2.47;;;1.98;;
12635;SDS011;6383;50.830;7.210;2023-03-29T06:39:40;2.30;;;2.10;;
12635;SDS011;6383;50.830;7.210;2023-03-29T06:42:08;4.25;;;2.42;;
12635;SDS011;6383;50.830;7.210;2023-03-29T06:44:36;4.45;;;2.03;;
12635;SDS011;6383;50.830;7.210;2023-03-29T06:47:05;2.92;;;1.77;;
12635;SDS011;6383;50.830;7.210;2023-03-29T06:49:32;4.93;;;1.85;;
12635;SDS011;6383;50.830;7.210;2023-03-29T06:52:02;10.45;;;3.28;;
12635;SDS011;6383;50.830;7.210;2023-03-29T06:54:30;3.63;;;2.58;;
12635;SDS011;6383;50.830;7.210;2023-03-29T06:56:59;4.32;;;2.42;;
12635;SDS011;6383;50.830;7.210;2023-03-29T06:59:29;7.47;;;5.05;;
12635;SDS011;6383;50.830;7.210;2023-03-29T07:01:56;8.77;;;5.82;;
12635;SDS011;6383;50.830;7.210;2023-03-29T07:04:26;5.32;;;4.22;;
12635;SDS011;6383;50.830;7.210;2023-03-29T07:06:54;4.25;;;2.75;;
12635;SDS011;6383;50.830;7.210;2023-03-29T07:09:28;5.97;;;2.80;;
12635;SDS011;6383;50.830;7.210;2023-03-29T07:11:56;4.57;;;2.85;;
12635;SDS011;6383;50.830;7.210;2023-03-29T07:14:26;6.30;;;3.40;;
12635;SDS011;6383;50.830;7.210;2023-03-29T07:17:01;7.20;;;2.97;;
12635;SDS011;6383;50.830;7.210;2023-03-29T07:19:30;9.98;;;4.13;;
12635;SDS011;6383;50.830;7.210;2023-03-29T07:21:58;7.40;;;4.10;;
12635;SDS011;6383;50.830;7.210;2023-03-29T07:24:28;6.57;;;4.47;;
12635;SDS011;6383;50.830;7.210;2023-03-29T07:26:57;11.00;;;6.47;;
12635;SDS011;6383;50.830;7.210;2023-03-29T07:29:28;6.28;;;3.13;;
12635;SDS011;6383;50.830;7.210;2023-03-29T07:31:57;6.20;;;3.70;;
12635;SDS011;6383;50.830;7.210;2023-03-29T07:34:26;4.97;;;3.20;;
12635;SDS011;6383;50.830;7.210;2023-03-29T07:36:56;4.10;;;1.85;;
12635;SDS011;6383;50.830;7.210;2023-03-29T07:39:25;13.10;;;7.00;;
12635;SDS011;6383;50.830;7.210;2023-03-29T07:41:56;7.15;;;6.22;;
12635;SDS011;6383;50.830;7.210;2023-03-29T07:44:25;7.95;;;5.03;;
12635;SDS011;6383;50.830;7.210;2023-03-29T07:46:55;11.10;;;6.45;;
12635;SDS011;6383;50.830;7.210;2023-03-29T07:49:26;5.03;;;3.60;;
12635;SDS011;6383;50.830;7.210;2023-03-29T07:51:55;10.18;;;6.93;;
12635;SDS011;6383;50.830;7.210;2023-03-29T07:54:24;6.75;;;4.18;;
12635;SDS011;6383;50.830;7.210;2023-03-29T07:56:52;12.98;;;8.00;;
12635;SDS011;6383;50.830;7.210;2023-03-29T07:59:23;14.93;;;9.02;;
12635;SDS011;6383;50.830;7.210;2023-03-29T08:01:51;13.35;;;8.70;;
12635;SDS011;6383;50.830;7.210;2023-03-29T08:04:19;5.40;;;3.47;;
12635;SDS011;6383;50.830;7.210;2023-03-29T08:06:48;5.70;;;3.53;;
12635;SDS011;6383;50.830;7.210;2023-03-29T08:09:15;11.98;;;5.90;;
12635;SDS011;6383;50.830;7.210;2023-03-29T08:11:44;12.80;;;5.50;;
12635;SDS011;6383;50.830;7.210;2023-03-29T08:14:14;4.82;;;3.05;;
12635;SDS011;6383;50.830;7.210;2023-03-29T08:16:42;11.15;;;4.20;;
12635;SDS011;6383;50.830;7.210;2023-03-29T08:19:10;6.25;;;2.55;;
12635;SDS011;6383;50.830;7.210;2023-03-29T08:21:40;8.23;;;4.35;;
12635;SDS011;6383;50.830;7.210;2023-03-29T08:24:08;8.80;;;4.57;;
12635;SDS011;6383;50.830;7.210;2023-03-29T08:26:37;7.75;;;5.15;;
12635;SDS011;6383;50.830;7.210;2023-03-29T08:29:05;4.32;;;2.75;;
12635;SDS011;6383;50.830;7.210;2023-03-29T08:31:34;4.85;;;2.88;;
12635;SDS011;6383;50.830;7.210;2023-03-29T08:34:05;3.50;;;2.80;;
12635;SDS011;6383;50.830;7.210;2023-03-29T08:36:34;4.70;;;3.00;;
12635;SDS011;6383;50.830;7.210;2023-03-29T08:39:03;7.13;;;2.30;;
12635;SDS011;6383;50.830;7.210;2023-03-29T08:41:35;6.35;;;3.30;;
12635;SDS011;6383;50.830;7.210;2023-03-29T08:44:18;9.80;;;3.72;;
12635;SDS011;6383;50.830;7.210;2023-03-29T08:47:03;9.25;;;3.80;;
12635;SDS011;6383;50.830;7.210;2023-03-29T08:49:40;5.90;;;3.95;;
12635;SDS011;6383;50.830;7.210;2023-03-29T08:52:14;3.42;;;2.22;;
12635;SDS011;6383;50.830;7.210;2023-03-29T08:54:48;6.22;;;3.15;;
12635;SDS011;6383;50.830;7.210;2023-03-29T08:57:20;13.82;;;9.48;;
12635;SDS011;6383;50.830;7.210;2023-03-29T08:59:54;7.60;;;5.57;;
12635;SDS011;6383;50.830;7.210;2023-03-29T09:02:28;6.78;;;4.07;;
12635;SDS011;6383;50.830;7.210;2023-03-29T09:05:01;7.28;;;3.55;;
12635;SDS011;6383;50.830;7.210;2023-03-29T09:07:35;8.90;;;3.95;;
12635;SDS011;6383;50.830;7.210;2023-03-29T09:10:02;5.88;;;2.55;;
12635;SDS011;6383;50.830;7.210;2023-03-29T09:12:34;4.22;;;2.30;;
12635;SDS011;6383;50.830;7.210;2023-03-29T09:15:17;4.45;;;2.70;;
12635;SDS011;6383;50.830;7.210;2023-03-29T09:17:54;7.28;;;3.45;;
12635;SDS011;6383;50.830;7.210;2023-03-29T09:20:31;5.53;;;2.35;;
12635;SDS011;6383;50.830;7.210;2023-03-29T09:23:16;6.38;;;2.40;;
12635;SDS011;6383;50.830;7.210;2023-03-29T09:26:04;3.10;;;2.00;;
12635;SDS011;6383;50.830;7.210;2023-03-29T09:28:39;5.18;;;2.55;;
12635;SDS011;6383;50.830;7.210;2023-03-29T09:31:17;4.53;;;2.72;;
12635;SDS011;6383;50.830;7.210;2023-03-29T09:33:50;7.15;;;2.10;;
12635;SDS011;6383;50.830;7.210;2023-03-29T09:36:29;3.10;;;2.10;;
12635;SDS011;6383;50.830;7.210;2023-03-29T09:39:07;3.38;;;2.25;;
12635;SDS011;6383;50.830;7.210;2023-03-29T09:41:41;2.73;;;2.27;;
12635;SDS011;6383;50.830;7.210;2023-03-29T09:44:14;2.90;;;1.70;;
12635;SDS011;6383;50.830;7.210;2023-03-29T09:46:47;4.45;;;2.22;;
12635;SDS011;6383;50.830;7.210;2023-03-29T09:49:22;2.70;;;1.73;;
12635;SDS011;6383;50.830;7.210;2023-03-29T09:51:57;3.97;;;2.25;;
12635;SDS011;6383;50.830;7.210;2023-03-29T09:54:31;7.38;;;2.88;;
12635;SDS011;6383;50.830;7.210;2023-03-29T09:56:59;4.68;;;2.40;;
12635;SDS011;6383;50.830;7.210;2023-03-29T09:59:29;4.88;;;2.10;;
12635;SDS011;6383;50.830;7.210;2023-03-29T10:02:04;2.92;;;1.88;;
12635;SDS011;6383;50.830;7.210;2023-03-29T10:04:35;4.38;;;2.20;;
12635;SDS011;6383;50.830;7.210;2023-03-29T10:07:04;5.60;;;1.90;;
12635;SDS011;6383;50.830;7.210;2023-03-29T10:09:33;4.10;;;1.85;;
12635;SDS011;6383;50.830;7.210;2023-03-29T10:12:04;6.28;;;2.25;;
12635;SDS011;6383;50.830;7.210;2023-03-29T10:14:33;6.47;;;2.60;;
12635;SDS011;6383;50.830;7.210;2023-03-29T10:17:04;3.90;;;2.65;;
12635;SDS011;6383;50.830;7.210;2023-03-29T10:19:46;6.80;;;2.45;;
12635;SDS011;6383;50.830;7.210;2023-03-29T10:22:20;4.65;;;2.88;;
12635;SDS011;6383;50.830;7.210;2023-03-29T10:24:51;3.40;;;2.47;;
12635;SDS011;6383;50.830;7.210;2023-03-29T10:27:22;9.60;;;3.72;;
12635;SDS011;6383;50.830;7.210;2023-03-29T10:29:53;4.95;;;2.22;;
12635;SDS011;6383;50.830;7.210;2023-03-29T10:32:25;7.40;;;4.25;;
12635;SDS011;6383;50.830;7.210;2023-03-29T10:34:58;7.15;;;5.47;;
12635;SDS011;6383;50.830;7.210;2023-03-29T10:40:05;15.07;;;11.85;;
12635;SDS011;6383;50.830;7.210;2023-03-29T10:42:45;26.15;;;14.48;;
12635;SDS011;6383;50.830;7.210;2023-03-29T10:45:19;5.10;;;3.20;;
12635;SDS011;6383;50.830;7.210;2023-03-29T10:47:53;5.05;;;2.10;;
12635;SDS011;6383;50.830;7.210;2023-03-29T10:50:23;7.18;;;2.95;;
12635;SDS011;6383;50.830;7.210;2023-03-29T10:52:54;5.68;;;2.15;;
12635;SDS011;6383;50.830;7.210;2023-03-29T10:55:23;4.15;;;2.03;;
12635;SDS011;6383;50.830;7.210;2023-03-29T10:58:02;3.17;;;2.53;;
12635;SDS011;6383;50.830;7.210;2023-03-29T11:00:41;5.32;;;2.33;;
12635;SDS011;6383;50.830;7.210;2023-03-29T11:03:26;9.38;;;3.15;;
12635;SDS011;6383;50.830;7.210;2023-03-29T11:06:11;2.97;;;2.15;;
12635;SDS011;6383;50.830;7.210;2023-03-29T11:08:55;4.35;;;1.95;;
12635;SDS011;6383;50.830;7.210;2023-03-29T11:11:31;4.50;;;1.92;;
12635;SDS011;6383;50.830;7.210;2023-03-29T11:14:12;5.45;;;2.70;;
12635;SDS011;6383;50.830;7.210;2023-03-29T11:16:49;3.95;;;2.13;;
12635;SDS011;6383;50.830;7.210;2023-03-29T11:19:36;4.88;;;2.28;;
12635;SDS011;6383;50.830;7.210;2023-03-29T11:22:12;5.57;;;2.30;;
12635;SDS011;6383;50.830;7.210;2023-03-29T11:24:59;11.23;;;2.58;;
12635;SDS011;6383;50.830;7.210;2023-03-29T11:27:37;2.58;;;2.00;;
12635;SDS011;6383;50.830;7.210;2023-03-29T11:30:13;2.97;;;2.10;;
12635;SDS011;6383;50.830;7.210;2023-03-29T11:32:50;9.63;;;2.55;;
12635;SDS011;6383;50.830;7.210;2023-03-29T11:35:29;4.03;;;1.95;;
12635;SDS011;6383;50.830;7.210;2023-03-29T11:38:04;3.45;;;2.10;;
12635;SDS011;6383;50.830;7.210;2023-03-29T11:40:44;5.30;;;2.70;;
12635;SDS011;6383;50.830;7.210;2023-03-29T11:43:18;3.03;;;2.45;;
12635;SDS011;6383;50.830;7.210;2023-03-29T11:45:51;6.13;;;3.22;;
12635;SDS011;6383;50.830;7.210;2023-03-29T11:48:24;5.30;;;2.05;;
12635;SDS011;6383;50.830;7.210;2023-03-29T11:50:57;4.38;;;2.25;;
12635;SDS011;6383;50.830;7.210;2023-03-29T11:53:34;7.30;;;2.22;;
12635;SDS011;6383;50.830;7.210;2023-03-29T11:56:11;3.85;;;2.10;;
12635;SDS011;6383;50.830;7.210;2023-03-29T11:58:45;5.80;;;2.80;;
12635;SDS011;6383;50.830;7.210;2023-03-29T12:01:22;5.07;;;2.10;;
12635;SDS011;6383;50.830;7.210;2023-03-29T12:03:57;7.43;;;2.08;;
12635;SDS011;6383;50.830;7.210;2023-03-29T12:06:34;3.85;;;2.50;;
12635;SDS011;6383;50.830;7.210;2023-03-29T12:09:09;5.93;;;2.20;;
12635;SDS011;6383;50.830;7.210;2023-03-29T12:11:51;6.70;;;2.35;;
12635;SDS011;6383;50.830;7.210;2023-03-29T12:14:29;2.63;;;2.03;;
12635;SDS011;6383;50.830;7.210;2023-03-29T12:17:18;3.92;;;1.90;;
12635;SDS011;6383;50.830;7.210;2023-03-29T12:20:11;4.65;;;1.70;;
12635;SDS011;6383;50.830;7.210;2023-03-29T12:22:45;8.95;;;1.90;;
12635;SDS011;6383;50.830;7.210;2023-03-29T12:25:17;9.65;;;2.05;;
12635;SDS011;6383;50.830;7.210;2023-03-29T12:27:53;5.32;;;2.00;;
12635;SDS011;6383;50.830;7.210;2023-03-29T12:30:45;5.38;;;2.13;;
12635;SDS011;6383;50.830;7.210;2023-03-29T12:33:32;2.40;;;1.45;;
12635;SDS011;6383;50.830;7.210;2023-03-29T12:36:22;8.05;;;2.20;;
12635;SDS011;6383;50.830;7.210;2023-03-29T12:39:10;3.50;;;1.80;;
12635;SDS011;6383;50.830;7.210;2023-03-29T12:41:41;4.65;;;2.22;;
12635;SDS011;6383;50.830;7.210;2023-03-29T12:44:15;5.38;;;2.20;;
12635;SDS011;6383;50.830;7.210;2023-03-29T12:46:50;4.78;;;2.90;;
12635;SDS011;6383;50.830;7.210;2023-03-29T12:49:24;3.72;;;2.22;;
12635;SDS011;6383;50.830;7.210;2023-03-29T12:51:56;5.05;;;1.80;;
12635;SDS011;6383;50.830;7.210;2023-03-29T12:54:29;5.00;;;1.58;;
12635;SDS011;6383;50.830;7.210;2023-03-29T12:57:00;5.03;;;1.90;;
12635;SDS011;6383;50.830;7.210;2023-03-29T12:59:47;6.93;;;2.55;;
12635;SDS011;6383;50.830;7.210;2023-03-29T13:02:24;5.28;;;1.70;;
12635;SDS011;6383;50.830;7.210;2023-03-29T13:04:55;6.32;;;1.60;;
12635;SDS011;6383;50.830;7.210;2023-03-29T13:07:29;4.10;;;1.45;;
12635;SDS011;6383;50.830;7.210;2023-03-29T13:10:00;3.40;;;2.40;;
12635;SDS011;6383;50.830;7.210;2023-03-29T13:12:33;4.00;;;2.17;;
12635;SDS011;6383;50.830;7.210;2023-03-29T13:15:20;3.95;;;1.55;;
12635;SDS011;6383;50.830;7.210;2023-03-29T13:17:51;3.88;;;1.85;;
12635;SDS011;6383;50.830;7.210;2023-03-29T13:20:31;4.35;;;1.70;;
12635;SDS011;6383;50.830;7.210;2023-03-29T13:23:13;7.07;;;2.90;;
12635;SDS011;6383;50.830;7.210;2023-03-29T13:25:59;3.08;;;1.60;;
12635;SDS011;6383;50.830;7.210;2023-03-29T13:28:54;3.23;;;1.73;;
12635;SDS011;6383;50.830;7.210;2023-03-29T13:31:36;1.60;;;1.40;;
12635;SDS011;6383;50.830;7.210;2023-03-29T13:34:14;4.50;;;1.70;;
12635;SDS011;6383;50.830;7.210;2023-03-29T13:36:57;3.28;;;2.85;;
12635;SDS011;6383;50.830;7.210;2023-03-29T13:39:34;5.93;;;1.90;;
12635;SDS011;6383;50.830;7.210;2023-03-29T13:42:06;3.42;;;1.30;;
12635;SDS011;6383;50.830;7.210;2023-03-29T13:44:42;4.57;;;1.50;;
12635;SDS011;6383;50.830;7.210;2023-03-29T13:47:37;2.83;;;1.30;;
12635;SDS011;6383;50.830;7.210;2023-03-29T13:50:14;2.83;;;1.27;;
12635;SDS011;6383;50.830;7.210;2023-03-29T13:52:45;3.92;;;1.42;;
12635;SDS011;6383;50.830;7.210;2023-03-29T13:55:25;4.47;;;3.40;;
12635;SDS011;6383;50.830;7.210;2023-03-29T13:57:58;2.72;;;1.85;;
12635;SDS011;6383;50.830;7.210;2023-03-29T14:00:31;2.90;;;1.58;;
12635;SDS011;6383;50.830;7.210;2023-03-29T14:03:05;7.00;;;1.95;;
12635;SDS011;6383;50.830;7.210;2023-03-29T14:05:40;2.97;;;1.60;;
12635;SDS011;6383;50.830;7.210;2023-03-29T14:08:18;1.60;;;1.20;;
12635;SDS011;6383;50.830;7.210;2023-03-29T14:10:50;3.20;;;1.33;;
12635;SDS011;6383;50.830;7.210;2023-03-29T14:13:21;5.30;;;1.30;;
12635;SDS011;6383;50.830;7.210;2023-03-29T14:15:52;3.63;;;2.97;;
12635;SDS011;6383;50.830;7.210;2023-03-29T14:18:25;10.52;;;7.65;;
12635;SDS011;6383;50.830;7.210;2023-03-29T14:21:00;4.55;;;1.45;;
12635;SDS011;6383;50.830;7.210;2023-03-29T14:23:32;3.50;;;1.77;;
12635;SDS011;6383;50.830;7.210;2023-03-29T14:26:16;5.10;;;1.52;;
12635;SDS011;6383;50.830;7.210;2023-03-29T14:28:56;9.43;;;2.28;;
12635;SDS011;6383;50.830;7.210;2023-03-29T14:31:30;3.50;;;1.45;;
12635;SDS011;6383;50.830;7.210;2023-03-29T14:34:05;3.03;;;1.35;;
12635;SDS011;6383;50.830;7.210;2023-03-29T14:36:36;5.68;;;3.65;;
12635;SDS011;6383;50.830;7.210;2023-03-29T14:39:07;4.78;;;2.30;;
12635;SDS011;6383;50.830;7.210;2023-03-29T14:41:46;3.85;;;1.60;;
12635;SDS011;6383;50.830;7.210;2023-03-29T14:44:22;5.05;;;1.30;;
12635;SDS011;6383;50.830;7.210;2023-03-29T14:46:53;2.85;;;1.55;;
12635;SDS011;6383;50.830;7.210;2023-03-29T14:49:23;4.75;;;1.80;;
12635;SDS011;6383;50.830;7.210;2023-03-29T14:51:52;4.43;;;2.40;;
12635;SDS011;6383;50.830;7.210;2023-03-29T14:54:22;1.92;;;1.35;;
12635;SDS011;6383;50.830;7.210;2023-03-29T14:56:53;6.60;;;1.60;;
12635;SDS011;6383;50.830;7.210;2023-03-29T14:59:25;1.95;;;1.20;;
12635;SDS011;6383;50.830;7.210;2023-03-29T15:01:55;3.97;;;1.42;;
12635;SDS011;6383;50.830;7.210;2023-03-29T15:04:31;4.28;;;2.17;;
12635;SDS011;6383;50.830;7.210;2023-03-29T15:07:01;3.78;;;1.85;;
12635;SDS011;6383;50.830;7.210;2023-03-29T15:09:31;2.50;;;2.13;;
12635;SDS011;6383;50.830;7.210;2023-03-29T15:12:02;1.92;;;1.40;;
12635;SDS011;6383;50.830;7.210;2023-03-29T15:14:31;2.67;;;1.30;;
12635;SDS011;6383;50.830;7.210;2023-03-29T15:17:01;3.30;;;1.75;;
12635;SDS011;6383;50.830;7.210;2023-03-29T15:19:34;3.42;;;2.00;;
12635;SDS011;6383;50.830;7.210;2023-03-29T15:22:04;3.45;;;1.58;;
12635;SDS011;6383;50.830;7.210;2023-03-29T15:24:41;1.50;;;1.35;;
12635;SDS011;6383;50.830;7.210;2023-03-29T15:27:13;3.95;;;1.60;;
12635;SDS011;6383;50.830;7.210;2023-03-29T15:29:43;3.78;;;1.85;;
12635;SDS011;6383;50.830;7.210;2023-03-29T15:32:21;6.13;;;2.08;;
12635;SDS011;6383;50.830;7.210;2023-03-29T15:34:58;4.47;;;2.63;;